Time;durP1;ratioP1;P1;durP2;ratioP2;P2;SDS_P1;SDS_P2;PMS_P1;PMS_P2;Temp;Humidity;BMP_temperature;BMP_pressure;BME280_temperature;BME280_humidity;BME280_pressure;Samples;Min_cycle;Max_cycle;Signal;HPM_P1;HPM_P2
2023/09/06 00:00:17;0.00;0.00;0.62;0.00;0.00;0.62;4.50;2.30;;;30.00;31.90;;;;;;2258436;61;20389;-53
2023/09/06 00:03:01;0.00;0.00;0.62;0.00;0.00;0.62;2.40;2.20;;;30.00;31.90;;;;;;2257808;61;20894;-56
2023/09/06 00:05:47;0.00;0.00;0.62;0.00;0.00;0.62;2.50;2.30;;;30.00;31.80;;;;;;2255621;61;20880;-53
2023/09/06 00:08:35;0.00;0.00;0.62;0.00;0.00;0.62;2.60;1.80;;;30.00;31.90;;;;;;2255794;61;20385;-56
2023/09/06 00:11:20;0.00;0.00;0.62;0.00;0.00;0.62;2.87;1.90;;;30.00;31.90;;;;;;2256278;61;20451;-53
2023/09/06 00:14:04;0.00;0.00;0.62;0.00;0.00;0.62;3.13;2.07;;;30.00;31.90;;;;;;2255927;61;20385;-56
2023/09/06 00:16:49;0.00;0.00;0.62;0.00;0.00;0.62;4.50;2.47;;;30.00;31.90;;;;;;2255905;61;20493;-58
2023/09/06 00:19:34;0.00;0.00;0.62;0.00;0.00;0.62;3.07;2.20;;;30.10;31.90;;;;;;2256341;61;20428;-55
2023/09/06 00:22:20;0.00;0.00;0.62;0.00;0.00;0.62;2.70;2.10;;;30.10;31.90;;;;;;2255852;61;20354;-53
2023/09/06 00:25:05;0.00;0.00;0.62;0.00;0.00;0.62;2.57;2.03;;;30.10;31.80;;;;;;2256378;61;20787;-55
2023/09/06 00:27:51;0.00;0.00;0.62;0.00;0.00;0.62;2.93;2.00;;;30.10;31.80;;;;;;2255355;61;20409;-53
2023/09/06 00:30:36;0.00;0.00;0.62;0.00;0.00;0.62;3.00;2.30;;;30.10;31.70;;;;;;2256221;61;20357;-54
2023/09/06 00:33:21;0.00;0.00;0.62;0.00;0.00;0.62;3.17;1.97;;;30.10;31.60;;;;;;2255579;61;20420;-51
2023/09/06 00:36:06;0.00;0.00;0.62;0.00;0.00;0.62;2.57;2.10;;;30.10;31.60;;;;;;2255308;61;20486;-56
2023/09/06 00:38:52;0.00;0.00;0.62;0.00;0.00;0.62;2.40;1.90;;;30.20;31.70;;;;;;2255852;61;20362;-56
2023/09/06 00:41:41;0.00;0.00;0.62;0.00;0.00;0.62;2.43;2.20;;;30.10;31.50;;;;;;2256003;61;20874;-54
2023/09/06 00:44:26;0.00;0.00;0.62;0.00;0.00;0.62;2.60;2.17;;;30.20;31.60;;;;;;2255311;61;20358;-53
2023/09/06 00:47:12;0.00;0.00;0.62;0.00;0.00;0.62;2.60;2.30;;;30.20;31.60;;;;;;2255766;61;20401;-54
2023/09/06 00:49:57;0.00;0.00;0.62;0.00;0.00;0.62;2.67;2.40;;;30.20;31.60;;;;;;2255594;61;20634;-55
2023/09/06 00:52:42;0.00;0.00;0.62;0.00;0.00;0.62;2.57;2.03;;;30.20;31.50;;;;;;2256020;61;20440;-57
2023/09/06 00:55:28;0.00;0.00;0.62;0.00;0.00;0.62;3.63;2.10;;;30.20;31.50;;;;;;2256104;61;20378;-59
2023/09/06 00:58:18;0.00;0.00;0.62;0.00;0.00;0.62;2.20;2.00;;;30.20;31.50;;;;;;2255705;61;20358;-52
2023/09/06 01:01:05;0.00;0.00;0.62;0.00;0.00;0.62;2.43;2.10;;;30.20;31.60;;;;;;2256814;61;20459;-57
2023/09/06 01:03:50;0.00;0.00;0.62;0.00;0.00;0.62;2.60;1.80;;;30.20;31.50;;;;;;2256394;61;20389;-59
2023/09/06 01:06:38;0.00;0.00;0.62;0.00;0.00;0.62;3.67;2.47;;;30.20;31.50;;;;;;2256013;61;20377;-55
2023/09/06 01:09:23;0.00;0.00;0.62;0.00;0.00;0.62;2.70;2.13;;;30.20;31.50;;;;;;2256415;61;20377;-55
2023/09/06 01:12:12;0.00;0.00;0.62;0.00;0.00;0.62;2.97;2.50;;;30.20;31.40;;;;;;2255747;61;20358;-50
2023/09/06 01:14:57;0.00;0.00;0.62;0.00;0.00;0.62;2.53;2.10;;;30.20;31.40;;;;;;2256435;61;20766;-56
2023/09/06 01:17:43;0.00;0.00;0.62;0.00;0.00;0.62;3.00;2.27;;;30.20;31.40;;;;;;2256002;61;20474;-56
2023/09/06 01:20:33;0.00;0.00;0.62;0.00;0.00;0.62;2.80;2.10;;;30.20;31.90;;;;;;2256378;61;21027;-56
2023/09/06 01:23:38;0.00;0.00;0.62;0.00;0.00;0.62;2.50;2.00;;;30.20;31.40;;;;;;2256258;61;20406;-54
2023/09/06 01:26:24;0.00;0.00;0.62;0.00;0.00;0.62;4.70;2.33;;;30.20;31.30;;;;;;2256794;61;20606;-54
2023/09/06 01:29:09;0.00;0.00;0.62;0.00;0.00;0.62;3.00;2.30;;;30.20;31.30;;;;;;2256440;61;20361;-53
2023/09/06 01:31:53;0.00;0.00;0.62;0.00;0.00;0.62;3.20;2.30;;;30.20;31.30;;;;;;2256587;61;20365;-55
2023/09/06 01:34:38;0.00;0.00;0.62;0.00;0.00;0.62;2.33;2.13;;;30.20;31.30;;;;;;2256113;61;20366;-56
2023/09/06 01:37:23;0.00;0.00;0.62;0.00;0.00;0.62;2.07;1.67;;;30.20;31.30;;;;;;2256301;61;20401;-51
2023/09/06 01:40:15;0.00;0.00;0.62;0.00;0.00;0.62;2.87;1.90;;;30.20;31.30;;;;;;2251807;61;20390;-59
2023/09/06 01:43:00;0.00;0.00;0.62;0.00;0.00;0.62;3.83;2.03;;;30.30;31.40;;;;;;2270640;61;20366;-53
2023/09/06 01:45:50;0.00;0.00;0.62;0.00;0.00;0.62;3.30;2.50;;;30.30;31.40;;;;;;2256509;61;20454;-52
2023/09/06 01:48:36;0.00;0.00;0.62;0.00;0.00;0.62;2.53;2.10;;;30.20;31.30;;;;;;2255907;61;20904;-56
2023/09/06 01:51:22;0.00;0.00;0.62;0.00;0.00;0.62;2.30;2.10;;;30.20;31.30;;;;;;2256321;61;20404;-52
2023/09/06 01:54:08;0.00;0.00;0.62;0.00;0.00;0.62;2.97;2.40;;;30.20;31.30;;;;;;2256559;61;20460;-57
2023/09/06 01:56:54;0.00;0.00;0.62;0.00;0.00;0.62;3.00;2.20;;;30.20;31.30;;;;;;2255714;61;20396;-56
2023/09/06 01:59:38;0.00;0.00;0.62;0.00;0.00;0.62;3.07;2.40;;;30.20;31.20;;;;;;2256340;61;20362;-53
2023/09/06 02:02:23;0.00;0.00;0.62;0.00;0.00;0.62;4.13;2.47;;;30.20;31.20;;;;;;2256104;61;20409;-55
2023/09/06 02:05:08;0.00;0.00;0.62;0.00;0.00;0.62;2.67;2.47;;;30.20;31.20;;;;;;2256243;61;20409;-51
2023/09/06 02:07:53;0.00;0.00;0.62;0.00;0.00;0.62;2.47;2.23;;;30.20;31.20;;;;;;2256418;61;20382;-54
2023/09/06 02:10:40;0.00;0.00;0.62;0.00;0.00;0.62;4.83;2.50;;;30.20;31.20;;;;;;2256257;61;20361;-54
2023/09/06 02:13:26;0.00;0.00;0.62;0.00;0.00;0.62;4.63;2.00;;;30.20;31.20;;;;;;2255764;61;20856;-53
2023/09/06 02:16:12;0.00;0.00;0.62;0.00;0.00;0.62;2.73;2.23;;;30.20;31.10;;;;;;2256451;61;20677;-53
2023/09/06 02:18:56;0.00;0.00;0.62;0.00;0.00;0.62;3.23;2.40;;;30.20;31.20;;;;;;2255382;61;20393;-56
2023/09/06 02:21:41;0.00;0.00;0.62;0.00;0.00;0.62;2.30;2.03;;;30.20;31.10;;;;;;2256518;61;20796;-57
2023/09/06 02:24:25;0.00;0.00;0.62;0.00;0.00;0.62;2.67;2.20;;;30.20;31.20;;;;;;2256409;61;20361;-57
2023/09/06 02:27:12;0.00;0.00;0.62;0.00;0.00;0.62;2.63;2.30;;;30.20;31.10;;;;;;2255386;61;20382;-48
2023/09/06 02:29:58;0.00;0.00;0.62;0.00;0.00;0.62;3.60;2.77;;;30.10;31.00;;;;;;2255671;61;20947;-55
2023/09/06 02:32:43;0.00;0.00;0.62;0.00;0.00;0.62;2.20;1.80;;;30.10;31.00;;;;;;2255895;61;20436;-52
2023/09/06 02:35:27;0.00;0.00;0.62;0.00;0.00;0.62;3.90;2.90;;;30.10;31.00;;;;;;2255653;61;20378;-54
2023/09/06 02:38:13;0.00;0.00;0.62;0.00;0.00;0.62;3.23;2.50;;;30.10;31.00;;;;;;2255922;61;20759;-48
2023/09/06 02:40:58;0.00;0.00;0.62;0.00;0.00;0.62;2.77;2.23;;;30.10;31.00;;;;;;2255522;61;20397;-52
2023/09/06 02:43:43;0.00;0.00;0.62;0.00;0.00;0.62;5.40;2.70;;;30.00;31.00;;;;;;2256628;61;20445;-53
2023/09/06 02:46:29;0.00;0.00;0.62;0.00;0.00;0.62;5.73;2.27;;;30.00;31.00;;;;;;2256460;61;20381;-55
2023/09/06 02:49:14;0.00;0.00;0.62;0.00;0.00;0.62;2.87;2.30;;;29.90;31.00;;;;;;2255596;61;20394;-53
2023/09/06 02:51:58;0.00;0.00;0.62;0.00;0.00;0.62;3.80;2.70;;;29.90;31.10;;;;;;2256258;61;20385;-56
2023/09/06 02:54:43;0.00;0.00;0.62;0.00;0.00;0.62;3.20;2.77;;;29.90;31.20;;;;;;2255960;61;20405;-59
2023/09/06 02:57:27;0.00;0.00;0.62;0.00;0.00;0.62;4.33;2.17;;;29.80;31.20;;;;;;2255578;61;20424;-55
2023/09/06 03:00:21;0.00;0.00;0.62;0.00;0.00;0.62;2.83;2.53;;;29.80;31.30;;;;;;2256491;61;20370;-49
2023/09/06 03:03:10;0.00;0.00;0.62;0.00;0.00;0.62;3.23;2.50;;;29.80;31.30;;;;;;2255919;61;20397;-48
2023/09/06 03:05:56;0.00;0.00;0.62;0.00;0.00;0.62;3.60;2.77;;;29.80;31.30;;;;;;2255880;61;20378;-53
2023/09/06 03:08:42;0.00;0.00;0.62;0.00;0.00;0.62;2.77;2.40;;;29.80;31.30;;;;;;2255635;61;20416;-57
2023/09/06 03:11:26;0.00;0.00;0.62;0.00;0.00;0.62;2.67;2.40;;;29.80;31.30;;;;;;2255929;61;20338;-57
2023/09/06 03:14:12;0.00;0.00;0.62;0.00;0.00;0.62;2.67;2.07;;;29.80;31.30;;;;;;2255744;61;20412;-53
2023/09/06 03:16:57;0.00;0.00;0.62;0.00;0.00;0.62;3.83;2.47;;;29.70;31.20;;;;;;2255400;61;20794;-55
2023/09/06 03:19:45;0.00;0.00;0.62;0.00;0.00;0.62;2.97;2.10;;;29.70;31.10;;;;;;2255649;61;20401;-55
2023/09/06 03:22:29;0.00;0.00;0.62;0.00;0.00;0.62;4.00;2.63;;;29.70;31.10;;;;;;2255938;61;20369;-54
2023/09/06 03:25:14;0.00;0.00;0.62;0.00;0.00;0.62;3.60;2.60;;;29.70;31.20;;;;;;2255522;61;20369;-55
2023/09/06 03:28:04;0.00;0.00;0.62;0.00;0.00;0.62;3.10;2.07;;;29.60;31.20;;;;;;2255515;61;20796;-54
2023/09/06 03:30:52;0.00;0.00;0.62;0.00;0.00;0.62;2.40;1.97;;;29.60;31.30;;;;;;2256142;61;20412;-56
2023/09/06 03:33:36;0.00;0.00;0.62;0.00;0.00;0.62;2.53;2.27;;;29.60;31.40;;;;;;2255518;61;20365;-59
2023/09/06 03:36:24;0.00;0.00;0.62;0.00;0.00;0.62;3.43;2.30;;;29.50;31.40;;;;;;2255855;61;20398;-56
2023/09/06 03:39:13;0.00;0.00;0.62;0.00;0.00;0.62;3.30;2.30;;;29.50;31.40;;;;;;2255489;61;20493;-55
2023/09/06 03:42:01;0.00;0.00;0.62;0.00;0.00;0.62;5.00;1.90;;;29.50;31.40;;;;;;2256062;61;20425;-54
2023/09/06 03:44:46;0.00;0.00;0.62;0.00;0.00;0.62;2.57;2.10;;;29.50;31.40;;;;;;2255944;61;20812;-54
2023/09/06 03:47:31;0.00;0.00;0.62;0.00;0.00;0.62;4.30;2.67;;;29.50;31.40;;;;;;2255540;61;20417;-55
2023/09/06 03:50:15;0.00;0.00;0.62;0.00;0.00;0.62;3.53;2.50;;;29.50;31.40;;;;;;2255849;61;20370;-54
2023/09/06 03:53:04;0.00;0.00;0.62;0.00;0.00;0.62;3.67;2.70;;;29.50;31.40;;;;;;2255741;61;20401;-61
2023/09/06 03:55:49;0.00;0.00;0.62;0.00;0.00;0.62;2.97;2.10;;;29.50;31.40;;;;;;2255242;61;21006;-52
2023/09/06 03:58:34;0.00;0.00;0.62;0.00;0.00;0.62;2.67;2.27;;;29.50;31.50;;;;;;2254985;61;20489;-49
2023/09/06 04:01:19;0.00;0.00;0.62;0.00;0.00;0.62;4.93;2.50;;;29.50;31.50;;;;;;2255204;61;20386;-53
2023/09/06 04:04:08;0.00;0.00;0.62;0.00;0.00;0.62;2.80;1.93;;;29.50;31.50;;;;;;2254836;61;20388;-50
2023/09/06 04:06:52;0.00;0.00;0.62;0.00;0.00;0.62;3.53;2.20;;;29.50;31.50;;;;;;2255175;61;20448;-50
2023/09/06 04:09:39;0.00;0.00;0.62;0.00;0.00;0.62;3.67;2.03;;;29.50;31.50;;;;;;2254821;61;20470;-55
2023/09/06 04:12:23;0.00;0.00;0.62;0.00;0.00;0.62;2.63;1.80;;;29.50;31.50;;;;;;2255823;61;20378;-59
2023/09/06 04:15:09;0.00;0.00;0.62;0.00;0.00;0.62;2.43;1.60;;;29.50;31.50;;;;;;2255790;61;20959;-55
2023/09/06 04:17:59;0.00;0.00;0.62;0.00;0.00;0.62;3.73;2.27;;;29.50;31.50;;;;;;2255013;61;20416;-53
2023/09/06 04:20:48;0.00;0.00;0.62;0.00;0.00;0.62;4.23;2.40;;;29.50;31.50;;;;;;2255707;61;20416;-56
2023/09/06 04:23:36;0.00;0.00;0.62;0.00;0.00;0.62;4.03;2.20;;;29.50;31.40;;;;;;2255834;61;20366;-54
2023/09/06 04:26:25;0.00;0.00;0.62;0.00;0.00;0.62;3.10;2.30;;;29.50;31.40;;;;;;2255435;61;20416;-55
2023/09/06 04:29:10;0.00;0.00;0.62;0.00;0.00;0.62;3.00;2.50;;;29.50;31.40;;;;;;2255779;61;20389;-56
2023/09/06 04:31:55;0.00;0.00;0.62;0.00;0.00;0.62;2.50;2.00;;;29.50;31.30;;;;;;2255923;61;20420;-53
2023/09/06 04:34:40;0.00;0.00;0.62;0.00;0.00;0.62;2.63;2.17;;;29.50;31.40;;;;;;2256946;61;20389;-51
2023/09/06 04:37:25;0.00;0.00;0.62;0.00;0.00;0.62;4.20;2.70;;;29.50;31.40;;;;;;2256686;61;20386;-51
2023/09/06 04:40:12;0.00;0.00;0.62;0.00;0.00;0.62;2.47;1.90;;;29.50;31.40;;;;;;2256060;61;20404;-53
2023/09/06 04:43:00;0.00;0.00;0.62;0.00;0.00;0.62;3.20;2.40;;;29.50;31.40;;;;;;2256320;61;20397;-55
2023/09/06 04:45:47;0.00;0.00;0.62;0.00;0.00;0.62;3.33;2.47;;;29.50;31.40;;;;;;2256555;61;20366;-50
2023/09/06 04:48:32;0.00;0.00;0.62;0.00;0.00;0.62;2.73;2.30;;;29.50;31.30;;;;;;2255568;61;20386;-54
2023/09/06 04:51:19;0.00;0.00;0.62;0.00;0.00;0.62;2.57;2.10;;;29.50;31.30;;;;;;2253739;61;20361;-53
2023/09/06 04:54:04;0.00;0.00;0.62;0.00;0.00;0.62;4.87;2.50;;;29.50;31.30;;;;;;2255797;61;20424;-54
2023/09/06 04:56:53;0.00;0.00;0.62;0.00;0.00;0.62;3.30;2.17;;;29.50;31.20;;;;;;2256352;61;20384;-55
2023/09/06 04:59:39;0.00;0.00;0.62;0.00;0.00;0.62;3.23;2.40;;;29.50;31.20;;;;;;2256691;61;20361;-54
2023/09/06 05:02:24;0.00;0.00;0.62;0.00;0.00;0.62;3.27;2.73;;;29.40;31.20;;;;;;2255830;61;20393;-58
2023/09/06 05:05:08;0.00;0.00;0.62;0.00;0.00;0.62;2.73;2.07;;;29.40;31.10;;;;;;2256745;61;20385;-56
2023/09/06 05:07:53;0.00;0.00;0.62;0.00;0.00;0.62;5.30;2.77;;;29.40;31.20;;;;;;2255713;61;20405;-56
2023/09/06 05:10:41;0.00;0.00;0.62;0.00;0.00;0.62;3.53;2.20;;;29.30;31.20;;;;;;2256405;61;20400;-54
2023/09/06 05:13:26;0.00;0.00;0.62;0.00;0.00;0.62;5.13;2.43;;;29.30;31.20;;;;;;2256261;61;20413;-53
2023/09/06 05:16:12;0.00;0.00;0.62;0.00;0.00;0.62;4.27;2.70;;;29.20;31.30;;;;;;2256491;61;20938;-56
2023/09/06 05:18:58;0.00;0.00;0.62;0.00;0.00;0.62;3.70;2.27;;;29.20;31.30;;;;;;2255963;61;20792;-53
2023/09/06 05:21:47;0.00;0.00;0.62;0.00;0.00;0.62;2.63;2.20;;;29.10;31.30;;;;;;2256284;61;20448;-58
2023/09/06 05:24:32;0.00;0.00;0.62;0.00;0.00;0.62;4.00;2.23;;;29.10;31.30;;;;;;2256313;61;20381;-55
2023/09/06 05:27:21;0.00;0.00;0.62;0.00;0.00;0.62;3.83;2.70;;;29.10;31.40;;;;;;2255980;61;20432;-56
2023/09/06 05:30:08;0.00;0.00;0.62;0.00;0.00;0.62;4.93;2.77;;;29.00;31.40;;;;;;2256268;61;20374;-56
2023/09/06 05:32:56;0.00;0.00;0.62;0.00;0.00;0.62;3.93;2.70;;;29.00;31.50;;;;;;2256131;61;20385;-52
2023/09/06 05:35:43;0.00;0.00;0.62;0.00;0.00;0.62;3.93;2.93;;;29.00;31.50;;;;;;2256714;61;20402;-54
2023/09/06 05:38:28;0.00;0.00;0.62;0.00;0.00;0.62;3.67;2.90;;;28.90;31.50;;;;;;2255652;61;20821;-57
2023/09/06 05:41:13;0.00;0.00;0.62;0.00;0.00;0.62;5.03;3.07;;;28.90;31.70;;;;;;2260195;61;20844;-59
2023/09/06 05:44:01;0.00;0.00;0.62;0.00;0.00;0.62;4.60;2.80;;;28.90;31.70;;;;;;2260224;61;20365;-56
2023/09/06 05:46:45;0.00;0.00;0.62;0.00;0.00;0.62;6.33;2.77;;;28.80;31.80;;;;;;2259861;61;20389;-56
2023/09/06 05:49:35;0.00;0.00;0.62;0.00;0.00;0.62;4.30;2.97;;;28.80;31.90;;;;;;2260098;61;20365;-53
2023/09/06 05:52:20;0.00;0.00;0.62;0.00;0.00;0.62;6.33;3.13;;;28.70;32.00;;;;;;2260240;61;20365;-56
2023/09/06 05:55:06;0.00;0.00;0.62;0.00;0.00;0.62;6.70;2.63;;;28.70;32.10;;;;;;2260206;61;20384;-54
2023/09/06 05:57:52;0.00;0.00;0.62;0.00;0.00;0.62;2.93;2.40;;;28.60;32.30;;;;;;2259720;61;20385;-55
2023/09/06 06:00:38;0.00;0.00;0.62;0.00;0.00;0.62;4.37;2.17;;;28.50;32.40;;;;;;2259684;61;20389;-57
2023/09/06 06:03:24;0.00;0.00;0.62;0.00;0.00;0.62;3.57;2.30;;;28.50;32.40;;;;;;2260237;61;20909;-55
2023/09/06 06:06:13;0.00;0.00;0.62;0.00;0.00;0.62;7.40;2.70;;;28.50;32.60;;;;;;2260037;61;20385;-53
2023/09/06 06:08:58;0.00;0.00;0.62;0.00;0.00;0.62;4.30;2.17;;;28.50;32.50;;;;;;2259402;61;20373;-52
2023/09/06 06:11:42;0.00;0.00;0.62;0.00;0.00;0.62;4.23;2.47;;;28.50;32.40;;;;;;2260542;61;20361;-55
2023/09/06 06:14:28;0.00;0.00;0.62;0.00;0.00;0.62;4.23;3.13;;;28.40;32.30;;;;;;2260562;61;20415;-55
2023/09/06 06:17:12;0.00;0.00;0.62;0.00;0.00;0.62;2.90;2.50;;;28.40;32.30;;;;;;2259856;61;20381;-54
2023/09/06 06:19:57;0.00;0.00;0.62;0.00;0.00;0.62;5.57;2.67;;;28.40;32.30;;;;;;2260578;61;20949;-54
2023/09/06 06:22:43;0.00;0.00;0.62;0.00;0.00;0.62;3.40;2.50;;;28.40;32.40;;;;;;2260458;61;20365;-57
2023/09/06 06:25:28;0.00;0.00;0.62;0.00;0.00;0.62;3.63;2.50;;;28.40;32.60;;;;;;2260533;61;20420;-55
2023/09/06 06:28:13;0.00;0.00;0.62;0.00;0.00;0.62;2.60;2.30;;;28.30;32.60;;;;;;2260174;61;20361;-56
2023/09/06 06:30:58;0.00;0.00;0.62;0.00;0.00;0.62;3.10;2.27;;;28.30;32.80;;;;;;2260149;61;20365;-56
2023/09/06 06:33:43;0.00;0.00;0.62;0.00;0.00;0.62;6.77;2.83;;;28.30;32.90;;;;;;2260567;61;20364;-56
2023/09/06 06:36:31;0.00;0.00;0.62;0.00;0.00;0.62;3.20;2.60;;;28.30;32.90;;;;;;2260460;61;20412;-56
2023/09/06 06:39:17;0.00;0.00;0.62;0.00;0.00;0.62;3.20;2.70;;;28.20;33.00;;;;;;2259972;61;20369;-60
2023/09/06 06:42:02;0.00;0.00;0.62;0.00;0.00;0.62;3.17;2.47;;;28.20;33.70;;;;;;2260315;61;20388;-55
2023/09/06 06:44:52;0.00;0.00;0.62;0.00;0.00;0.62;3.40;2.20;;;28.20;33.20;;;;;;2259998;61;20400;-54
2023/09/06 06:47:37;0.00;0.00;0.62;0.00;0.00;0.62;3.10;2.43;;;28.10;33.20;;;;;;2260206;61;20435;-54
2023/09/06 06:50:22;0.00;0.00;0.62;0.00;0.00;0.62;3.17;2.43;;;28.20;33.30;;;;;;2260490;61;20357;-54
2023/09/06 06:53:08;0.00;0.00;0.62;0.00;0.00;0.62;4.93;2.50;;;28.10;33.30;;;;;;2259765;61;20455;-53
2023/09/06 06:55:54;0.00;0.00;0.62;0.00;0.00;0.62;3.30;2.53;;;28.10;33.40;;;;;;2260416;61;20778;-55
2023/09/06 06:58:38;0.00;0.00;0.62;0.00;0.00;0.62;3.83;2.57;;;28.10;33.40;;;;;;2260302;61;20396;-54
2023/09/06 07:01:24;0.00;0.00;0.62;0.00;0.00;0.62;5.50;2.77;;;28.10;33.50;;;;;;2259854;61;20443;-55
2023/09/06 07:04:09;0.00;0.00;0.62;0.00;0.00;0.62;4.07;2.33;;;28.00;33.60;;;;;;2260760;61;20886;-53
2023/09/06 07:06:54;0.00;0.00;0.62;0.00;0.00;0.62;2.80;2.30;;;28.00;33.70;;;;;;2260469;61;20436;-57
2023/09/06 07:09:38;0.00;0.00;0.62;0.00;0.00;0.62;3.03;2.70;;;28.00;33.80;;;;;;2260211;61;20415;-54
2023/09/06 07:12:24;0.00;0.00;0.62;0.00;0.00;0.62;5.13;2.13;;;28.00;33.90;;;;;;2260028;61;20495;-54
2023/09/06 07:15:10;0.00;0.00;0.62;0.00;0.00;0.62;5.43;2.30;;;28.00;33.90;;;;;;2259541;61;20362;-49
2023/09/06 07:17:54;0.00;0.00;0.62;0.00;0.00;0.62;3.10;2.30;;;28.00;33.90;;;;;;2259826;61;20397;-50
2023/09/06 07:20:39;0.00;0.00;0.62;0.00;0.00;0.62;3.00;2.70;;;28.00;34.00;;;;;;2259907;61;20515;-51
2023/09/06 07:23:23;0.00;0.00;0.62;0.00;0.00;0.62;3.13;2.40;;;28.00;34.00;;;;;;2259505;61;20823;-49
2023/09/06 07:26:08;0.00;0.00;0.62;0.00;0.00;0.62;3.00;2.57;;;28.00;34.00;;;;;;2259923;61;20427;-52
2023/09/06 07:28:54;0.00;0.00;0.62;0.00;0.00;0.62;2.90;2.30;;;28.00;34.00;;;;;;2259839;61;20416;-54
2023/09/06 07:31:39;0.00;0.00;0.62;0.00;0.00;0.62;4.63;2.80;;;28.00;34.00;;;;;;2259946;61;20365;-53
2023/09/06 07:34:23;0.00;0.00;0.62;0.00;0.00;0.62;4.13;2.57;;;28.00;34.00;;;;;;2260151;61;20369;-56
2023/09/06 07:37:09;0.00;0.00;0.62;0.00;0.00;0.62;3.17;2.40;;;28.00;34.00;;;;;;2259997;61;20494;-55
2023/09/06 07:39:54;0.00;0.00;0.62;0.00;0.00;0.62;4.77;2.67;;;28.00;34.00;;;;;;2260185;61;20365;-52
2023/09/06 07:42:39;0.00;0.00;0.62;0.00;0.00;0.62;7.77;3.23;;;28.00;33.90;;;;;;2260193;61;20937;-62
2023/09/06 07:45:25;0.00;0.00;0.62;0.00;0.00;0.62;3.80;2.93;;;28.00;34.00;;;;;;2259829;61;20780;-53
2023/09/06 07:48:09;0.00;0.00;0.62;0.00;0.00;0.62;3.83;2.50;;;28.00;34.10;;;;;;2259960;61;20377;-50
2023/09/06 07:50:54;0.00;0.00;0.62;0.00;0.00;0.62;3.50;2.10;;;28.00;34.20;;;;;;2260273;61;20453;-57
2023/09/06 07:53:39;0.00;0.00;0.62;0.00;0.00;0.62;2.73;2.27;;;28.00;34.30;;;;;;2259900;61;20780;-57
2023/09/06 07:56:24;0.00;0.00;0.62;0.00;0.00;0.62;6.50;3.10;;;28.00;34.30;;;;;;2260235;61;20746;-53
2023/09/06 07:59:12;0.00;0.00;0.62;0.00;0.00;0.62;5.77;2.40;;;28.00;34.30;;;;;;2259599;61;20449;-56
2023/09/06 08:01:58;0.00;0.00;0.62;0.00;0.00;0.62;3.33;2.40;;;28.10;34.40;;;;;;2260173;61;20783;-55
2023/09/06 08:04:43;0.00;0.00;0.62;0.00;0.00;0.62;3.30;2.17;;;28.10;34.40;;;;;;2260826;61;20372;-55
2023/09/06 08:07:28;0.00;0.00;0.62;0.00;0.00;0.62;3.90;2.43;;;28.10;34.50;;;;;;2260141;61;20385;-51
2023/09/06 08:10:13;0.00;0.00;0.62;0.00;0.00;0.62;3.90;2.40;;;28.10;34.50;;;;;;2260669;61;20444;-51
2023/09/06 08:12:58;0.00;0.00;0.62;0.00;0.00;0.62;3.17;2.63;;;28.10;34.50;;;;;;2260983;61;20361;-53
2023/09/06 08:15:42;0.00;0.00;0.62;0.00;0.00;0.62;2.43;2.20;;;28.20;34.60;;;;;;2260876;61;20371;-59
2023/09/06 08:18:28;0.00;0.00;0.62;0.00;0.00;0.62;3.50;2.40;;;28.20;34.60;;;;;;2260554;61;20886;-53
2023/09/06 08:21:14;0.00;0.00;0.62;0.00;0.00;0.62;2.93;2.40;;;28.20;34.70;;;;;;2260627;61;20578;-52
2023/09/06 08:24:01;0.00;0.00;0.62;0.00;0.00;0.62;3.37;2.70;;;28.20;34.60;;;;;;2261137;61;20368;-59
2023/09/06 08:26:49;0.00;0.00;0.62;0.00;0.00;0.62;3.00;2.33;;;28.30;34.70;;;;;;2260804;61;20928;-57
2023/09/06 08:29:33;0.00;0.00;0.62;0.00;0.00;0.62;3.03;2.23;;;28.30;35.40;;;;;;2260393;61;20452;-54
2023/09/06 08:32:18;0.00;0.00;0.62;0.00;0.00;0.62;3.63;2.20;;;28.30;34.70;;;;;;2260931;61;20396;-52
2023/09/06 08:35:05;0.00;0.00;0.62;0.00;0.00;0.62;4.00;2.50;;;28.40;34.80;;;;;;2260925;61;20468;-55
2023/09/06 08:37:50;0.00;0.00;0.62;0.00;0.00;0.62;4.27;2.40;;;28.40;34.70;;;;;;2260065;61;20439;-51
2023/09/06 08:40:36;0.00;0.00;0.62;0.00;0.00;0.62;3.03;2.37;;;28.40;34.70;;;;;;2260636;61;20513;-54
2023/09/06 08:43:23;0.00;0.00;0.62;0.00;0.00;0.62;3.70;2.40;;;28.40;34.60;;;;;;2260787;61;20365;-55
2023/09/06 08:46:16;0.00;0.00;0.62;0.00;0.00;0.62;3.83;2.50;;;28.40;34.50;;;;;;2260953;61;20804;-55
2023/09/06 08:49:03;0.00;0.00;0.62;0.00;0.00;0.62;2.50;2.13;;;28.50;34.60;;;;;;2260585;61;20948;-53
2023/09/06 08:51:50;0.00;0.00;0.62;0.00;0.00;0.62;3.50;2.30;;;28.50;34.50;;;;;;2260543;61;20357;-54
2023/09/06 08:54:35;0.00;0.00;0.62;0.00;0.00;0.62;6.80;2.73;;;28.50;34.40;;;;;;2260965;61;20369;-58
2023/09/06 08:57:21;0.00;0.00;0.62;0.00;0.00;0.62;3.70;3.03;;;28.60;34.40;;;;;;2260665;61;20431;-53
2023/09/06 09:00:09;0.00;0.00;0.62;0.00;0.00;0.62;2.60;2.07;;;28.60;34.30;;;;;;2260001;61;20443;-53
2023/09/06 09:02:53;0.00;0.00;0.62;0.00;0.00;0.62;3.87;2.23;;;28.60;34.30;;;;;;2260770;61;20353;-56
2023/09/06 09:05:38;0.00;0.00;0.62;0.00;0.00;0.62;3.20;2.30;;;28.70;34.40;;;;;;2260244;61;20357;-57
2023/09/06 09:08:27;0.00;0.00;0.62;0.00;0.00;0.62;2.50;2.00;;;28.70;34.40;;;;;;2260264;61;20806;-58
2023/09/06 09:11:13;0.00;0.00;0.62;0.00;0.00;0.62;4.80;2.33;;;28.70;34.40;;;;;;2260693;61;20373;-60
2023/09/06 09:14:00;0.00;0.00;0.62;0.00;0.00;0.62;3.60;2.40;;;28.80;34.40;;;;;;2260318;61;20375;-56
2023/09/06 09:16:54;0.00;0.00;0.62;0.00;0.00;0.62;3.60;1.90;;;28.80;34.30;;;;;;2260562;61;20381;-57
2023/09/06 09:19:38;0.00;0.00;0.62;0.00;0.00;0.62;5.67;2.40;;;28.80;34.20;;;;;;2260645;61;20432;-65
2023/09/06 09:22:24;0.00;0.00;0.62;0.00;0.00;0.62;2.90;2.40;;;28.90;34.20;;;;;;2260294;61;20389;-61
2023/09/06 09:25:17;0.00;0.00;0.62;0.00;0.00;0.62;2.87;2.23;;;28.90;34.20;;;;;;2260779;61;20392;-62
2023/09/06 09:28:02;0.00;0.00;0.62;0.00;0.00;0.62;2.20;1.90;;;28.90;34.20;;;;;;2260038;61;20439;-60
2023/09/06 09:30:48;0.00;0.00;0.62;0.00;0.00;0.62;3.87;2.33;;;28.90;34.10;;;;;;2260010;61;20826;-63
2023/09/06 09:33:33;0.00;0.00;0.62;0.00;0.00;0.62;3.40;2.37;;;29.00;34.10;;;;;;2256516;61;21023;-58
2023/09/06 09:36:18;0.00;0.00;0.62;0.00;0.00;0.62;2.50;2.30;;;29.00;34.10;;;;;;2251170;61;20439;-55
2023/09/06 09:39:06;0.00;0.00;0.62;0.00;0.00;0.62;3.63;2.27;;;29.00;34.20;;;;;;2255599;61;20972;-58
2023/09/06 09:41:52;0.00;0.00;0.62;0.00;0.00;0.62;2.87;2.37;;;29.00;34.10;;;;;;2256402;61;20816;-61
2023/09/06 09:44:38;0.00;0.00;0.62;0.00;0.00;0.62;5.63;2.90;;;29.10;34.20;;;;;;2256334;61;20374;-56
2023/09/06 09:47:23;0.00;0.00;0.62;0.00;0.00;0.62;2.90;2.47;;;29.10;34.10;;;;;;2256308;61;20389;-61
2023/09/06 09:50:10;0.00;0.00;0.62;0.00;0.00;0.62;2.90;2.33;;;29.20;34.20;;;;;;2256360;61;20362;-55
2023/09/06 09:52:56;0.00;0.00;0.62;0.00;0.00;0.62;2.90;2.17;;;29.20;34.10;;;;;;2256329;61;20365;-60
2023/09/06 09:55:45;0.00;0.00;0.62;0.00;0.00;0.62;2.80;2.53;;;29.20;34.00;;;;;;2256034;61;20358;-62
2023/09/06 09:58:34;0.00;0.00;0.62;0.00;0.00;0.62;4.10;2.30;;;29.20;33.90;;;;;;2255682;61;20782;-59
2023/09/06 10:01:20;0.00;0.00;0.62;0.00;0.00;0.62;5.17;2.97;;;29.30;33.90;;;;;;2256503;61;20386;-56
2023/09/06 10:04:06;0.00;0.00;0.62;0.00;0.00;0.62;4.03;2.67;;;29.30;33.90;;;;;;2253394;61;20366;-57
2023/09/06 10:06:51;0.00;0.00;0.62;0.00;0.00;0.62;2.90;2.33;;;29.30;33.70;;;;;;2257930;61;20931;-58
2023/09/06 10:09:39;0.00;0.00;0.62;0.00;0.00;0.62;3.30;2.50;;;29.40;33.60;;;;;;2260036;61;20427;-57
2023/09/06 10:12:26;0.00;0.00;0.62;0.00;0.00;0.62;2.93;2.27;;;29.40;33.40;;;;;;2260237;61;20357;-53
2023/09/06 10:15:13;0.00;0.00;0.62;0.00;0.00;0.62;2.90;2.60;;;29.40;33.10;;;;;;2260675;61;20853;-58
2023/09/06 10:17:58;0.00;0.00;0.62;0.00;0.00;0.62;3.97;2.27;;;29.50;33.10;;;;;;2260049;61;20428;-58
2023/09/06 10:20:43;0.00;0.00;0.62;0.00;0.00;0.62;4.60;2.20;;;29.50;33.10;;;;;;2259876;61;20364;-60
2023/09/06 10:23:31;0.00;0.00;0.62;0.00;0.00;0.62;2.70;2.17;;;29.50;33.10;;;;;;2260450;61;20368;-60
2023/09/06 10:26:25;0.00;0.00;0.62;0.00;0.00;0.62;3.10;1.90;;;29.60;33.10;;;;;;2260299;61;20949;-60
2023/09/06 10:29:10;0.00;0.00;0.62;0.00;0.00;0.62;2.50;2.30;;;29.60;32.80;;;;;;2259600;61;20365;-59
2023/09/06 10:32:02;0.00;0.00;0.62;0.00;0.00;0.62;2.50;2.03;;;29.60;32.50;;;;;;2260380;61;20412;-60
2023/09/06 10:35:22;0.00;0.00;0.62;0.00;0.00;0.62;4.27;2.63;;;29.60;32.50;;;;;;2259884;61;20449;-59
2023/09/06 10:38:10;0.00;0.00;0.62;0.00;0.00;0.62;4.87;2.13;;;29.60;32.30;;;;;;2258291;61;20524;-58
2023/09/06 10:41:07;0.00;0.00;0.62;0.00;0.00;0.62;3.37;2.13;;;29.70;32.20;;;;;;2256477;61;20432;-58
2023/09/06 10:44:01;0.00;0.00;0.62;0.00;0.00;0.62;2.97;2.10;;;29.70;32.00;;;;;;2256015;61;20529;-60
2023/09/06 10:46:48;0.00;0.00;0.62;0.00;0.00;0.62;2.73;2.40;;;29.80;31.80;;;;;;2254733;61;20390;-60
2023/09/06 10:49:34;0.00;0.00;0.62;0.00;0.00;0.62;3.00;2.60;;;29.80;31.70;;;;;;2256212;61;20387;-56
2023/09/06 10:52:37;0.00;0.00;0.62;0.00;0.00;0.62;2.97;2.20;;;29.80;31.70;;;;;;2260435;61;20644;-60
2023/09/06 10:55:24;0.00;0.00;0.62;0.00;0.00;0.62;3.20;2.60;;;29.80;31.70;;;;;;2260245;61;20408;-60